ADDS METAR Data INFO
IDs: Format: Raw Decoded Include TAF

Data at: 2354 UTC 23 Feb 2018

METAR for:KPIE (St Petersburg/Clearw, FL, US)
Text:KPIE 232253Z 31006KT 10SM SCT060 26/19 A3025 RMK AO2 SLP244 T02560194 $
Temperature: 25.6°C ( 78°F)
Dewpoint: 19.4°C ( 67°F) [RH = 69%]
Pressure (altimeter):30.25 inches Hg (1024.5 mb) [Sea level pressure: 1024.4 mb]
Winds:from the NW (310 degrees) at 7 MPH (6 knots; 3.1 m/s)
Visibility:10 or more sm (16+ km)
Ceiling:at least 12,000 feet AGL
Clouds: scattered clouds at 6000 feet AGL
QC Flag:SOME DATA ABOVE MAY BE INACCURATE!!!"$" is an indication the sensor requires maintenance.